sensor_id;sensor_type;location;lat;lon;timestamp;P1;durP1;ratioP1;P2;durP2;ratioP2
56537;SDS011;42435;53.292;6.000;2022-07-23T00:02:05;7.30;;;2.63;;
56537;SDS011;42435;53.292;6.000;2022-07-23T00:04:32;4.85;;;2.33;;
56537;SDS011;42435;53.292;6.000;2022-07-23T00:06:58;5.03;;;3.20;;
56537;SDS011;42435;53.292;6.000;2022-07-23T00:09:23;5.57;;;2.97;;
56537;SDS011;42435;53.292;6.000;2022-07-23T00:11:49;5.82;;;3.38;;
56537;SDS011;42435;53.292;6.000;2022-07-23T00:14:15;3.95;;;2.65;;
56537;SDS011;42435;53.292;6.000;2022-07-23T00:16:40;7.55;;;3.70;;
56537;SDS011;42435;53.292;6.000;2022-07-23T00:19:06;4.63;;;2.40;;
56537;SDS011;42435;53.292;6.000;2022-07-23T00:21:31;7.35;;;2.47;;
56537;SDS011;42435;53.292;6.000;2022-07-23T00:23:57;4.40;;;2.78;;
56537;SDS011;42435;53.292;6.000;2022-07-23T00:26:23;4.25;;;2.80;;
56537;SDS011;42435;53.292;6.000;2022-07-23T00:28:48;5.60;;;2.78;;
56537;SDS011;42435;53.292;6.000;2022-07-23T00:31:14;5.68;;;2.75;;
56537;SDS011;42435;53.292;6.000;2022-07-23T00:33:40;4.60;;;2.50;;
56537;SDS011;42435;53.292;6.000;2022-07-23T00:36:06;3.35;;;2.40;;
56537;SDS011;42435;53.292;6.000;2022-07-23T00:38:31;5.85;;;3.10;;
56537;SDS011;42435;53.292;6.000;2022-07-23T00:40:57;3.45;;;2.15;;
56537;SDS011;42435;53.292;6.000;2022-07-23T00:43:23;3.80;;;2.58;;
56537;SDS011;42435;53.292;6.000;2022-07-23T00:45:49;5.88;;;3.28;;
56537;SDS011;42435;53.292;6.000;2022-07-23T00:48:15;3.83;;;2.38;;
56537;SDS011;42435;53.292;6.000;2022-07-23T00:50:41;6.07;;;2.88;;
56537;SDS011;42435;53.292;6.000;2022-07-23T00:53:07;4.90;;;3.08;;
56537;SDS011;42435;53.292;6.000;2022-07-23T00:55:34;6.07;;;3.80;;
56537;SDS011;42435;53.292;6.000;2022-07-23T00:57:59;4.07;;;2.63;;
56537;SDS011;42435;53.292;6.000;2022-07-23T01:00:27;5.07;;;2.03;;
56537;SDS011;42435;53.292;6.000;2022-07-23T01:02:53;4.63;;;2.88;;
56537;SDS011;42435;53.292;6.000;2022-07-23T01:05:18;4.18;;;2.70;;
56537;SDS011;42435;53.292;6.000;2022-07-23T01:07:50;3.95;;;2.72;;
56537;SDS011;42435;53.292;6.000;2022-07-23T01:10:16;7.97;;;2.72;;
56537;SDS011;42435;53.292;6.000;2022-07-23T01:13:02;4.80;;;2.80;;
56537;SDS011;42435;53.292;6.000;2022-07-23T01:15:29;3.78;;;2.97;;
56537;SDS011;42435;53.292;6.000;2022-07-23T01:17:55;4.45;;;3.20;;
56537;SDS011;42435;53.292;6.000;2022-07-23T01:20:21;5.47;;;3.10;;
56537;SDS011;42435;53.292;6.000;2022-07-23T01:22:47;6.78;;;3.10;;
56537;SDS011;42435;53.292;6.000;2022-07-23T01:25:13;4.53;;;2.40;;
56537;SDS011;42435;53.292;6.000;2022-07-23T01:27:39;4.68;;;2.85;;
56537;SDS011;42435;53.292;6.000;2022-07-23T01:30:05;4.15;;;3.00;;
56537;SDS011;42435;53.292;6.000;2022-07-23T01:32:31;4.68;;;2.92;;
56537;SDS011;42435;53.292;6.000;2022-07-23T01:34:57;3.92;;;2.75;;
56537;SDS011;42435;53.292;6.000;2022-07-23T01:37:22;4.43;;;2.60;;
56537;SDS011;42435;53.292;6.000;2022-07-23T01:39:48;3.72;;;2.60;;
56537;SDS011;42435;53.292;6.000;2022-07-23T01:42:14;4.60;;;2.78;;
56537;SDS011;42435;53.292;6.000;2022-07-23T01:44:39;7.00;;;3.05;;
56537;SDS011;42435;53.292;6.000;2022-07-23T01:47:05;5.38;;;2.97;;
56537;SDS011;42435;53.292;6.000;2022-07-23T01:49:30;3.60;;;2.70;;
56537;SDS011;42435;53.292;6.000;2022-07-23T01:51:56;3.47;;;2.60;;
56537;SDS011;42435;53.292;6.000;2022-07-23T01:54:25;3.35;;;2.38;;
56537;SDS011;42435;53.292;6.000;2022-07-23T01:56:51;6.18;;;3.00;;
56537;SDS011;42435;53.292;6.000;2022-07-23T01:59:17;3.63;;;2.08;;
56537;SDS011;42435;53.292;6.000;2022-07-23T02:01:42;3.90;;;2.22;;
56537;SDS011;42435;53.292;6.000;2022-07-23T02:04:08;7.53;;;2.65;;
56537;SDS011;42435;53.292;6.000;2022-07-23T02:06:34;3.90;;;2.53;;
56537;SDS011;42435;53.292;6.000;2022-07-23T02:08:59;4.35;;;2.55;;
56537;SDS011;42435;53.292;6.000;2022-07-23T02:11:27;3.30;;;2.60;;
56537;SDS011;42435;53.292;6.000;2022-07-23T02:13:53;6.75;;;3.67;;
56537;SDS011;42435;53.292;6.000;2022-07-23T02:16:18;9.48;;;3.28;;
56537;SDS011;42435;53.292;6.000;2022-07-23T02:18:44;10.52;;;3.97;;
56537;SDS011;42435;53.292;6.000;2022-07-23T02:21:11;4.05;;;2.83;;
56537;SDS011;42435;53.292;6.000;2022-07-23T02:23:36;7.13;;;3.00;;
56537;SDS011;42435;53.292;6.000;2022-07-23T02:26:02;5.57;;;2.95;;
56537;SDS011;42435;53.292;6.000;2022-07-23T02:28:30;2.78;;;2.08;;
56537;SDS011;42435;53.292;6.000;2022-07-23T02:30:56;6.07;;;2.50;;
56537;SDS011;42435;53.292;6.000;2022-07-23T02:33:21;6.85;;;3.53;;
56537;SDS011;42435;53.292;6.000;2022-07-23T02:35:47;4.97;;;2.95;;
56537;SDS011;42435;53.292;6.000;2022-07-23T02:38:13;5.43;;;2.67;;
56537;SDS011;42435;53.292;6.000;2022-07-23T02:40:38;5.15;;;3.03;;
56537;SDS011;42435;53.292;6.000;2022-07-23T02:43:04;6.38;;;3.05;;
56537;SDS011;42435;53.292;6.000;2022-07-23T02:45:29;4.97;;;2.60;;
56537;SDS011;42435;53.292;6.000;2022-07-23T02:47:55;4.38;;;2.65;;
56537;SDS011;42435;53.292;6.000;2022-07-23T02:50:21;5.82;;;3.00;;
56537;SDS011;42435;53.292;6.000;2022-07-23T02:52:46;4.80;;;2.85;;
56537;SDS011;42435;53.292;6.000;2022-07-23T02:55:12;6.05;;;2.40;;
56537;SDS011;42435;53.292;6.000;2022-07-23T02:57:37;5.45;;;2.60;;
56537;SDS011;42435;53.292;6.000;2022-07-23T03:00:03;5.95;;;3.25;;
56537;SDS011;42435;53.292;6.000;2022-07-23T03:02:31;4.22;;;2.30;;
56537;SDS011;42435;53.292;6.000;2022-07-23T03:04:56;7.22;;;3.38;;
56537;SDS011;42435;53.292;6.000;2022-07-23T03:07:22;4.80;;;2.60;;
56537;SDS011;42435;53.292;6.000;2022-07-23T03:09:48;4.53;;;2.63;;
56537;SDS011;42435;53.292;6.000;2022-07-23T03:12:13;5.38;;;2.85;;
56537;SDS011;42435;53.292;6.000;2022-07-23T03:14:39;3.40;;;2.15;;
56537;SDS011;42435;53.292;6.000;2022-07-23T03:17:05;5.65;;;2.50;;
56537;SDS011;42435;53.292;6.000;2022-07-23T03:19:31;5.22;;;2.38;;
56537;SDS011;42435;53.292;6.000;2022-07-23T03:21:57;4.75;;;2.95;;
56537;SDS011;42435;53.292;6.000;2022-07-23T03:24:22;4.90;;;2.90;;
56537;SDS011;42435;53.292;6.000;2022-07-23T03:27:08;4.85;;;2.53;;
56537;SDS011;42435;53.292;6.000;2022-07-23T03:29:33;5.47;;;3.40;;
56537;SDS011;42435;53.292;6.000;2022-07-23T03:32:02;6.50;;;3.25;;
56537;SDS011;42435;53.292;6.000;2022-07-23T03:34:29;6.53;;;2.88;;
56537;SDS011;42435;53.292;6.000;2022-07-23T03:36:54;4.88;;;3.28;;
56537;SDS011;42435;53.292;6.000;2022-07-23T03:39:20;7.00;;;2.67;;
56537;SDS011;42435;53.292;6.000;2022-07-23T03:41:45;7.10;;;3.20;;
56537;SDS011;42435;53.292;6.000;2022-07-23T03:44:11;2.97;;;2.28;;
56537;SDS011;42435;53.292;6.000;2022-07-23T03:46:36;7.55;;;3.50;;
56537;SDS011;42435;53.292;6.000;2022-07-23T03:49:02;4.80;;;2.60;;
56537;SDS011;42435;53.292;6.000;2022-07-23T03:51:31;4.68;;;2.10;;
56537;SDS011;42435;53.292;6.000;2022-07-23T03:53:59;4.28;;;2.60;;
56537;SDS011;42435;53.292;6.000;2022-07-23T03:56:25;4.22;;;2.42;;
56537;SDS011;42435;53.292;6.000;2022-07-23T03:58:51;5.72;;;2.65;;
56537;SDS011;42435;53.292;6.000;2022-07-23T04:01:17;3.33;;;2.42;;
56537;SDS011;42435;53.292;6.000;2022-07-23T04:03:42;9.10;;;3.08;;
56537;SDS011;42435;53.292;6.000;2022-07-23T04:06:08;7.30;;;3.15;;
56537;SDS011;42435;53.292;6.000;2022-07-23T04:08:33;6.15;;;3.03;;
56537;SDS011;42435;53.292;6.000;2022-07-23T04:10:59;4.38;;;2.00;;
56537;SDS011;42435;53.292;6.000;2022-07-23T04:13:28;3.65;;;2.20;;
56537;SDS011;42435;53.292;6.000;2022-07-23T04:15:53;5.57;;;2.78;;
56537;SDS011;42435;53.292;6.000;2022-07-23T04:18:19;4.68;;;2.72;;
56537;SDS011;42435;53.292;6.000;2022-07-23T04:20:51;7.25;;;2.90;;
56537;SDS011;42435;53.292;6.000;2022-07-23T04:23:17;6.78;;;2.85;;
56537;SDS011;42435;53.292;6.000;2022-07-23T04:28:08;5.32;;;3.15;;
56537;SDS011;42435;53.292;6.000;2022-07-23T04:30:37;4.50;;;3.13;;
56537;SDS011;42435;53.292;6.000;2022-07-23T04:33:02;5.93;;;2.40;;
56537;SDS011;42435;53.292;6.000;2022-07-23T04:35:31;4.13;;;2.08;;
56537;SDS011;42435;53.292;6.000;2022-07-23T04:38:00;3.67;;;2.20;;
56537;SDS011;42435;53.292;6.000;2022-07-23T04:40:29;2.90;;;1.92;;
56537;SDS011;42435;53.292;6.000;2022-07-23T04:42:56;2.75;;;1.83;;
56537;SDS011;42435;53.292;6.000;2022-07-23T04:45:23;3.75;;;2.25;;
56537;SDS011;42435;53.292;6.000;2022-07-23T04:47:57;2.60;;;1.70;;
56537;SDS011;42435;53.292;6.000;2022-07-23T04:50:26;5.38;;;2.08;;
56537;SDS011;42435;53.292;6.000;2022-07-23T04:52:51;4.13;;;1.90;;
56537;SDS011;42435;53.292;6.000;2022-07-23T04:55:17;5.40;;;2.03;;
56537;SDS011;42435;53.292;6.000;2022-07-23T04:57:45;2.53;;;1.92;;
56537;SDS011;42435;53.292;6.000;2022-07-23T05:00:11;3.65;;;1.73;;
56537;SDS011;42435;53.292;6.000;2022-07-23T05:02:37;5.10;;;1.98;;
56537;SDS011;42435;53.292;6.000;2022-07-23T05:05:02;3.65;;;2.03;;
56537;SDS011;42435;53.292;6.000;2022-07-23T05:07:28;3.17;;;1.95;;
56537;SDS011;42435;53.292;6.000;2022-07-23T05:09:54;2.42;;;1.50;;
56537;SDS011;42435;53.292;6.000;2022-07-23T05:12:19;2.95;;;1.65;;
56537;SDS011;42435;53.292;6.000;2022-07-23T05:14:47;2.75;;;1.90;;
56537;SDS011;42435;53.292;6.000;2022-07-23T05:17:13;2.55;;;1.55;;
56537;SDS011;42435;53.292;6.000;2022-07-23T05:19:38;2.35;;;1.42;;
56537;SDS011;42435;53.292;6.000;2022-07-23T05:22:04;3.70;;;1.58;;
56537;SDS011;42435;53.292;6.000;2022-07-23T05:24:32;3.70;;;1.67;;
56537;SDS011;42435;53.292;6.000;2022-07-23T05:26:58;2.30;;;1.23;;
56537;SDS011;42435;53.292;6.000;2022-07-23T05:29:23;2.33;;;1.60;;
56537;SDS011;42435;53.292;6.000;2022-07-23T05:31:55;1.90;;;1.45;;
56537;SDS011;42435;53.292;6.000;2022-07-23T05:34:20;3.63;;;1.45;;
56537;SDS011;42435;53.292;6.000;2022-07-23T05:36:46;3.13;;;1.23;;
56537;SDS011;42435;53.292;6.000;2022-07-23T05:39:11;4.07;;;1.48;;
56537;SDS011;42435;53.292;6.000;2022-07-23T05:41:37;1.67;;;1.35;;
56537;SDS011;42435;53.292;6.000;2022-07-23T05:44:05;2.33;;;1.30;;
56537;SDS011;42435;53.292;6.000;2022-07-23T05:46:31;1.65;;;1.10;;
56537;SDS011;42435;53.292;6.000;2022-07-23T05:48:57;3.42;;;1.20;;
56537;SDS011;42435;53.292;6.000;2022-07-23T05:51:23;1.73;;;1.15;;
56537;SDS011;42435;53.292;6.000;2022-07-23T05:53:49;3.50;;;1.48;;
56537;SDS011;42435;53.292;6.000;2022-07-23T05:56:15;2.63;;;1.65;;
56537;SDS011;42435;53.292;6.000;2022-07-23T05:58:44;2.55;;;1.38;;
56537;SDS011;42435;53.292;6.000;2022-07-23T06:01:13;2.90;;;1.15;;
56537;SDS011;42435;53.292;6.000;2022-07-23T06:03:38;4.63;;;1.42;;
56537;SDS011;42435;53.292;6.000;2022-07-23T06:06:04;1.92;;;1.63;;
56537;SDS011;42435;53.292;6.000;2022-07-23T06:08:31;2.30;;;1.05;;
56537;SDS011;42435;53.292;6.000;2022-07-23T06:10:56;3.90;;;1.20;;
56537;SDS011;42435;53.292;6.000;2022-07-23T06:13:22;1.27;;;0.90;;
56537;SDS011;42435;53.292;6.000;2022-07-23T06:15:48;1.30;;;0.80;;
56537;SDS011;42435;53.292;6.000;2022-07-23T06:18:13;2.17;;;1.15;;
56537;SDS011;42435;53.292;6.000;2022-07-23T06:20:42;2.30;;;0.80;;
56537;SDS011;42435;53.292;6.000;2022-07-23T06:23:08;3.25;;;1.20;;
56537;SDS011;42435;53.292;6.000;2022-07-23T06:25:33;0.90;;;0.60;;
56537;SDS011;42435;53.292;6.000;2022-07-23T06:27:59;1.67;;;0.60;;
56537;SDS011;42435;53.292;6.000;2022-07-23T06:30:25;2.25;;;0.65;;
56537;SDS011;42435;53.292;6.000;2022-07-23T06:32:50;2.53;;;0.65;;
56537;SDS011;42435;53.292;6.000;2022-07-23T06:35:16;2.55;;;0.60;;
56537;SDS011;42435;53.292;6.000;2022-07-23T06:37:42;1.77;;;0.60;;
56537;SDS011;42435;53.292;6.000;2022-07-23T06:40:11;2.70;;;0.60;;
56537;SDS011;42435;53.292;6.000;2022-07-23T06:42:38;5.40;;;2.03;;
56537;SDS011;42435;53.292;6.000;2022-07-23T06:45:04;1.85;;;0.50;;
56537;SDS011;42435;53.292;6.000;2022-07-23T06:47:31;0.40;;;0.30;;
56537;SDS011;42435;53.292;6.000;2022-07-23T06:49:56;0.98;;;0.30;;
56537;SDS011;42435;53.292;6.000;2022-07-23T06:52:22;0.50;;;0.30;;
56537;SDS011;42435;53.292;6.000;2022-07-23T06:54:48;1.30;;;0.50;;
56537;SDS011;42435;53.292;6.000;2022-07-23T06:57:14;0.50;;;0.30;;
56537;SDS011;42435;53.292;6.000;2022-07-23T06:59:40;0.52;;;0.30;;
56537;SDS011;42435;53.292;6.000;2022-07-23T07:02:09;0.40;;;0.30;;
56537;SDS011;42435;53.292;6.000;2022-07-23T07:04:34;0.40;;;0.40;;
56537;SDS011;42435;53.292;6.000;2022-07-23T07:07:03;0.40;;;0.30;;
56537;SDS011;42435;53.292;6.000;2022-07-23T07:09:28;1.73;;;0.32;;
56537;SDS011;42435;53.292;6.000;2022-07-23T07:14:31;0.82;;;0.38;;
56537;SDS011;42435;53.292;6.000;2022-07-23T07:16:57;0.55;;;0.55;;
56537;SDS011;42435;53.292;6.000;2022-07-23T07:19:22;0.47;;;0.30;;
56537;SDS011;42435;53.292;6.000;2022-07-23T07:21:48;1.58;;;0.20;;
56537;SDS011;42435;53.292;6.000;2022-07-23T07:24:47;1.52;;;0.40;;
56537;SDS011;42435;53.292;6.000;2022-07-23T07:27:06;0.47;;;0.38;;
56537;SDS011;42435;53.292;6.000;2022-07-23T07:29:31;2.63;;;0.40;;
56537;SDS011;42435;53.292;6.000;2022-07-23T07:32:00;0.90;;;0.70;;
56537;SDS011;42435;53.292;6.000;2022-07-23T07:34:25;0.95;;;0.25;;
56537;SDS011;42435;53.292;6.000;2022-07-23T07:36:51;0.90;;;0.40;;
56537;SDS011;42435;53.292;6.000;2022-07-23T07:39:16;0.32;;;0.20;;
56537;SDS011;42435;53.292;6.000;2022-07-23T07:41:42;1.50;;;0.32;;
56537;SDS011;42435;53.292;6.000;2022-07-23T07:46:49;0.70;;;0.45;;
56537;SDS011;42435;53.292;6.000;2022-07-23T07:49:32;0.35;;;0.30;;
56537;SDS011;42435;53.292;6.000;2022-07-23T07:52:01;0.30;;;0.30;;
56537;SDS011;42435;53.292;6.000;2022-07-23T07:54:31;0.93;;;0.20;;
56537;SDS011;42435;53.292;6.000;2022-07-23T07:56:57;0.43;;;0.43;;
56537;SDS011;42435;53.292;6.000;2022-07-23T07:59:26;0.30;;;0.30;;
56537;SDS011;42435;53.292;6.000;2022-07-23T08:01:55;0.73;;;0.30;;
56537;SDS011;42435;53.292;6.000;2022-07-23T08:04:44;1.95;;;0.40;;
56537;SDS011;42435;53.292;6.000;2022-07-23T08:07:23;1.40;;;0.32;;
56537;SDS011;42435;53.292;6.000;2022-07-23T08:10:03;0.68;;;0.30;;
56537;SDS011;42435;53.292;6.000;2022-07-23T08:12:42;1.42;;;0.32;;
56537;SDS011;42435;53.292;6.000;2022-07-23T08:15:10;0.63;;;0.40;;
56537;SDS011;42435;53.292;6.000;2022-07-23T08:17:36;3.72;;;0.40;;
56537;SDS011;42435;53.292;6.000;2022-07-23T08:20:02;0.82;;;0.40;;
56537;SDS011;42435;53.292;6.000;2022-07-23T08:22:42;0.88;;;0.30;;
56537;SDS011;42435;53.292;6.000;2022-07-23T08:25:08;1.40;;;0.30;;
56537;SDS011;42435;53.292;6.000;2022-07-23T08:27:34;1.17;;;0.40;;
56537;SDS011;42435;53.292;6.000;2022-07-23T08:30:00;0.95;;;0.38;;
56537;SDS011;42435;53.292;6.000;2022-07-23T08:32:25;0.30;;;0.30;;
56537;SDS011;42435;53.292;6.000;2022-07-23T08:34:51;1.38;;;0.55;;
56537;SDS011;42435;53.292;6.000;2022-07-23T08:37:16;0.75;;;0.70;;
56537;SDS011;42435;53.292;6.000;2022-07-23T08:39:42;0.90;;;0.50;;
56537;SDS011;42435;53.292;6.000;2022-07-23T08:42:07;1.30;;;0.40;;
56537;SDS011;42435;53.292;6.000;2022-07-23T08:44:34;2.08;;;0.90;;
56537;SDS011;42435;53.292;6.000;2022-07-23T08:47:00;1.55;;;0.45;;
56537;SDS011;42435;53.292;6.000;2022-07-23T08:49:29;1.63;;;0.55;;
56537;SDS011;42435;53.292;6.000;2022-07-23T08:51:55;1.55;;;0.43;;
56537;SDS011;42435;53.292;6.000;2022-07-23T08:54:21;1.90;;;0.43;;
56537;SDS011;42435;53.292;6.000;2022-07-23T08:56:54;1.40;;;0.60;;
56537;SDS011;42435;53.292;6.000;2022-07-23T08:59:26;0.52;;;0.40;;
56537;SDS011;42435;53.292;6.000;2022-07-23T09:01:52;2.15;;;0.70;;
56537;SDS011;42435;53.292;6.000;2022-07-23T09:04:23;0.52;;;0.45;;
56537;SDS011;42435;53.292;6.000;2022-07-23T09:06:49;4.13;;;1.05;;
56537;SDS011;42435;53.292;6.000;2022-07-23T09:09:21;1.00;;;0.80;;
56537;SDS011;42435;53.292;6.000;2022-07-23T09:12:01;1.33;;;0.73;;
56537;SDS011;42435;53.292;6.000;2022-07-23T09:14:41;2.38;;;0.80;;
56537;SDS011;42435;53.292;6.000;2022-07-23T09:17:12;1.63;;;0.60;;
56537;SDS011;42435;53.292;6.000;2022-07-23T09:19:43;1.88;;;0.60;;
56537;SDS011;42435;53.292;6.000;2022-07-23T09:22:16;0.95;;;0.52;;
56537;SDS011;42435;53.292;6.000;2022-07-23T09:30:33;1.13;;;0.40;;
56537;SDS011;42435;53.292;6.000;2022-07-23T09:33:03;0.82;;;0.40;;
56537;SDS011;42435;53.292;6.000;2022-07-23T09:35:48;3.63;;;0.60;;
56537;SDS011;42435;53.292;6.000;2022-07-23T09:38:29;1.65;;;0.65;;
56537;SDS011;42435;53.292;6.000;2022-07-23T09:41:05;1.02;;;0.50;;
56537;SDS011;42435;53.292;6.000;2022-07-23T09:43:34;1.55;;;0.47;;
56537;SDS011;42435;53.292;6.000;2022-07-23T09:46:21;1.13;;;0.40;;
56537;SDS011;42435;53.292;6.000;2022-07-23T09:48:55;0.95;;;0.43;;
56537;SDS011;42435;53.292;6.000;2022-07-23T09:51:22;1.48;;;0.40;;
56537;SDS011;42435;53.292;6.000;2022-07-23T09:54:06;1.98;;;0.80;;
56537;SDS011;42435;53.292;6.000;2022-07-23T09:57:13;3.70;;;0.60;;
56537;SDS011;42435;53.292;6.000;2022-07-23T09:59:43;1.85;;;0.45;;
56537;SDS011;42435;53.292;6.000;2022-07-23T10:02:17;0.85;;;0.25;;
56537;SDS011;42435;53.292;6.000;2022-07-23T10:04:48;1.25;;;0.60;;
56537;SDS011;42435;53.292;6.000;2022-07-23T10:07:24;0.75;;;0.60;;
56537;SDS011;42435;53.292;6.000;2022-07-23T10:10:00;0.68;;;0.30;;
56537;SDS011;42435;53.292;6.000;2022-07-23T10:12:38;1.75;;;0.47;;
56537;SDS011;42435;53.292;6.000;2022-07-23T10:15:21;0.73;;;0.30;;
56537;SDS011;42435;53.292;6.000;2022-07-23T10:17:53;0.50;;;0.30;;
56537;SDS011;42435;53.292;6.000;2022-07-23T10:20:28;1.33;;;0.50;;
56537;SDS011;42435;53.292;6.000;2022-07-23T10:26:03;0.47;;;0.40;;
56537;SDS011;42435;53.292;6.000;2022-07-23T10:29:02;0.95;;;0.40;;
56537;SDS011;42435;53.292;6.000;2022-07-23T10:37:14;1.40;;;0.73;;
56537;SDS011;42435;53.292;6.000;2022-07-23T10:43:04;1.70;;;0.30;;
56537;SDS011;42435;53.292;6.000;2022-07-23T10:45:45;0.40;;;0.40;;
56537;SDS011;42435;53.292;6.000;2022-07-23T10:51:08;1.10;;;0.38;;
56537;SDS011;42435;53.292;6.000;2022-07-23T10:59:14;2.45;;;0.40;;
56537;SDS011;42435;53.292;6.000;2022-07-23T11:01:40;2.05;;;0.63;;
56537;SDS011;42435;53.292;6.000;2022-07-23T11:04:06;1.58;;;0.82;;
56537;SDS011;42435;53.292;6.000;2022-07-23T11:12:31;2.00;;;0.40;;
56537;SDS011;42435;53.292;6.000;2022-07-23T11:17:24;1.23;;;0.65;;
56537;SDS011;42435;53.292;6.000;2022-07-23T11:25:00;2.55;;;0.60;;
56537;SDS011;42435;53.292;6.000;2022-07-23T11:32:52;5.50;;;0.80;;
56537;SDS011;42435;53.292;6.000;2022-07-23T11:35:23;2.15;;;0.60;;
56537;SDS011;42435;53.292;6.000;2022-07-23T11:38:03;3.17;;;0.77;;
56537;SDS011;42435;53.292;6.000;2022-07-23T11:40:55;2.05;;;0.55;;
56537;SDS011;42435;53.292;6.000;2022-07-23T11:43:24;0.68;;;0.55;;
56537;SDS011;42435;53.292;6.000;2022-07-23T11:45:51;1.35;;;0.70;;
56537;SDS011;42435;53.292;6.000;2022-07-23T11:48:23;1.88;;;0.52;;
56537;SDS011;42435;53.292;6.000;2022-07-23T11:50:54;1.30;;;0.63;;
56537;SDS011;42435;53.292;6.000;2022-07-23T11:53:22;0.50;;;0.50;;
56537;SDS011;42435;53.292;6.000;2022-07-23T11:55:51;3.03;;;0.70;;
56537;SDS011;42435;53.292;6.000;2022-07-23T11:58:18;0.50;;;0.40;;
56537;SDS011;42435;53.292;6.000;2022-07-23T12:00:44;1.83;;;0.40;;
56537;SDS011;42435;53.292;6.000;2022-07-23T12:03:09;1.38;;;0.40;;
56537;SDS011;42435;53.292;6.000;2022-07-23T12:05:36;1.38;;;0.55;;
56537;SDS011;42435;53.292;6.000;2022-07-23T12:08:04;0.47;;;0.30;;
56537;SDS011;42435;53.292;6.000;2022-07-23T12:10:38;1.08;;;0.40;;
56537;SDS011;42435;53.292;6.000;2022-07-23T12:13:13;0.93;;;0.40;;
56537;SDS011;42435;53.292;6.000;2022-07-23T12:15:47;2.05;;;0.50;;
56537;SDS011;42435;53.292;6.000;2022-07-23T12:18:22;1.35;;;0.50;;
56537;SDS011;42435;53.292;6.000;2022-07-23T12:20:50;6.97;;;1.30;;
56537;SDS011;42435;53.292;6.000;2022-07-23T12:23:18;1.10;;;0.40;;
56537;SDS011;42435;53.292;6.000;2022-07-23T12:25:46;0.57;;;0.50;;
56537;SDS011;42435;53.292;6.000;2022-07-23T12:30:43;1.48;;;0.60;;
56537;SDS011;42435;53.292;6.000;2022-07-23T12:33:11;0.93;;;0.60;;
56537;SDS011;42435;53.292;6.000;2022-07-23T12:35:43;1.55;;;0.70;;
56537;SDS011;42435;53.292;6.000;2022-07-23T12:38:14;1.00;;;0.52;;
56537;SDS011;42435;53.292;6.000;2022-07-23T12:40:43;1.30;;;0.60;;
56537;SDS011;42435;53.292;6.000;2022-07-23T12:43:27;1.10;;;0.50;;
56537;SDS011;42435;53.292;6.000;2022-07-23T12:46:03;1.95;;;0.70;;
56537;SDS011;42435;53.292;6.000;2022-07-23T12:48:35;1.50;;;0.60;;
56537;SDS011;42435;53.292;6.000;2022-07-23T12:51:08;1.15;;;0.50;;
56537;SDS011;42435;53.292;6.000;2022-07-23T12:53:43;1.48;;;0.65;;
56537;SDS011;42435;53.292;6.000;2022-07-23T12:56:14;1.25;;;0.43;;
56537;SDS011;42435;53.292;6.000;2022-07-23T13:03:57;3.42;;;2.05;;
56537;SDS011;42435;53.292;6.000;2022-07-23T13:09:09;0.65;;;0.65;;
56537;SDS011;42435;53.292;6.000;2022-07-23T13:11:37;1.90;;;0.80;;
56537;SDS011;42435;53.292;6.000;2022-07-23T13:14:04;0.98;;;0.45;;
56537;SDS011;42435;53.292;6.000;2022-07-23T13:16:30;1.33;;;0.52;;
56537;SDS011;42435;53.292;6.000;2022-07-23T13:18:56;1.67;;;0.50;;
56537;SDS011;42435;53.292;6.000;2022-07-23T13:21:39;2.25;;;1.33;;
56537;SDS011;42435;53.292;6.000;2022-07-23T13:24:06;2.33;;;0.75;;
56537;SDS011;42435;53.292;6.000;2022-07-23T13:26:38;1.52;;;0.70;;
56537;SDS011;42435;53.292;6.000;2022-07-23T13:29:04;0.77;;;0.68;;
56537;SDS011;42435;53.292;6.000;2022-07-23T13:31:34;2.20;;;0.52;;
56537;SDS011;42435;53.292;6.000;2022-07-23T13:34:02;3.53;;;0.60;;
56537;SDS011;42435;53.292;6.000;2022-07-23T13:36:27;2.63;;;0.50;;
56537;SDS011;42435;53.292;6.000;2022-07-23T13:38:53;1.27;;;0.80;;
56537;SDS011;42435;53.292;6.000;2022-07-23T13:41:22;1.55;;;0.65;;
56537;SDS011;42435;53.292;6.000;2022-07-23T13:43:47;1.38;;;0.60;;
56537;SDS011;42435;53.292;6.000;2022-07-23T13:46:14;0.98;;;0.57;;
56537;SDS011;42435;53.292;6.000;2022-07-23T13:48:42;1.63;;;0.60;;
56537;SDS011;42435;53.292;6.000;2022-07-23T13:51:11;1.58;;;0.60;;
56537;SDS011;42435;53.292;6.000;2022-07-23T13:53:37;1.25;;;0.30;;
56537;SDS011;42435;53.292;6.000;2022-07-23T13:56:06;0.55;;;0.40;;
56537;SDS011;42435;53.292;6.000;2022-07-23T13:58:32;1.05;;;0.50;;
56537;SDS011;42435;53.292;6.000;2022-07-23T14:00:57;3.63;;;0.70;;
56537;SDS011;42435;53.292;6.000;2022-07-23T14:03:23;1.35;;;0.50;;
56537;SDS011;42435;53.292;6.000;2022-07-23T14:05:49;1.42;;;0.70;;
56537;SDS011;42435;53.292;6.000;2022-07-23T14:08:19;1.42;;;0.63;;
56537;SDS011;42435;53.292;6.000;2022-07-23T14:10:48;0.43;;;0.40;;
56537;SDS011;42435;53.292;6.000;2022-07-23T14:13:16;0.50;;;0.50;;
56537;SDS011;42435;53.292;6.000;2022-07-23T14:15:42;1.10;;;0.50;;
56537;SDS011;42435;53.292;6.000;2022-07-23T14:18:07;1.50;;;0.60;;
56537;SDS011;42435;53.292;6.000;2022-07-23T14:23:35;1.00;;;0.38;;
56537;SDS011;42435;53.292;6.000;2022-07-23T14:26:00;1.58;;;0.80;;
56537;SDS011;42435;53.292;6.000;2022-07-23T14:28:29;1.50;;;0.50;;
56537;SDS011;42435;53.292;6.000;2022-07-23T14:30:54;1.23;;;0.47;;
56537;SDS011;42435;53.292;6.000;2022-07-23T14:33:20;1.58;;;0.55;;
56537;SDS011;42435;53.292;6.000;2022-07-23T14:35:49;1.00;;;0.50;;
56537;SDS011;42435;53.292;6.000;2022-07-23T14:38:14;2.65;;;0.50;;
56537;SDS011;42435;53.292;6.000;2022-07-23T14:40:40;2.05;;;0.60;;
56537;SDS011;42435;53.292;6.000;2022-07-23T14:43:06;1.10;;;0.75;;
56537;SDS011;42435;53.292;6.000;2022-07-23T14:45:32;1.15;;;1.00;;
56537;SDS011;42435;53.292;6.000;2022-07-23T14:47:57;1.45;;;0.60;;
56537;SDS011;42435;53.292;6.000;2022-07-23T14:50:23;0.70;;;0.68;;
56537;SDS011;42435;53.292;6.000;2022-07-23T14:52:49;0.75;;;0.75;;
56537;SDS011;42435;53.292;6.000;2022-07-23T14:55:15;2.38;;;0.90;;
56537;SDS011;42435;53.292;6.000;2022-07-23T14:57:42;1.95;;;0.70;;
56537;SDS011;42435;53.292;6.000;2022-07-23T15:00:08;3.13;;;0.70;;
56537;SDS011;42435;53.292;6.000;2022-07-23T15:02:34;4.72;;;0.98;;
56537;SDS011;42435;53.292;6.000;2022-07-23T15:04:59;1.67;;;0.70;;
56537;SDS011;42435;53.292;6.000;2022-07-23T15:07:26;1.25;;;0.77;;
56537;SDS011;42435;53.292;6.000;2022-07-23T15:09:52;1.10;;;0.57;;
56537;SDS011;42435;53.292;6.000;2022-07-23T15:12:18;2.30;;;0.65;;
56537;SDS011;42435;53.292;6.000;2022-07-23T15:14:46;2.30;;;0.70;;
56537;SDS011;42435;53.292;6.000;2022-07-23T15:17:12;2.05;;;0.75;;
56537;SDS011;42435;53.292;6.000;2022-07-23T15:19:37;1.23;;;0.80;;
56537;SDS011;42435;53.292;6.000;2022-07-23T15:22:03;1.15;;;0.60;;
56537;SDS011;42435;53.292;6.000;2022-07-23T15:24:38;1.23;;;0.57;;
56537;SDS011;42435;53.292;6.000;2022-07-23T15:27:04;1.92;;;0.80;;
56537;SDS011;42435;53.292;6.000;2022-07-23T15:29:30;2.80;;;0.73;;
56537;SDS011;42435;53.292;6.000;2022-07-23T15:31:55;1.48;;;0.82;;
56537;SDS011;42435;53.292;6.000;2022-07-23T15:34:21;2.67;;;1.08;;
56537;SDS011;42435;53.292;6.000;2022-07-23T15:36:49;1.58;;;0.70;;
56537;SDS011;42435;53.292;6.000;2022-07-23T15:39:14;1.65;;;0.75;;
56537;SDS011;42435;53.292;6.000;2022-07-23T15:41:40;2.42;;;0.75;;
56537;SDS011;42435;53.292;6.000;2022-07-23T15:44:06;1.00;;;0.52;;
56537;SDS011;42435;53.292;6.000;2022-07-23T15:46:31;1.55;;;0.65;;
56537;SDS011;42435;53.292;6.000;2022-07-23T15:49:03;2.30;;;0.80;;
56537;SDS011;42435;53.292;6.000;2022-07-23T15:51:31;1.35;;;0.55;;
56537;SDS011;42435;53.292;6.000;2022-07-23T15:54:00;4.95;;;0.73;;
56537;SDS011;42435;53.292;6.000;2022-07-23T15:56:25;1.25;;;0.80;;
56537;SDS011;42435;53.292;6.000;2022-07-23T15:58:51;1.52;;;0.70;;
56537;SDS011;42435;53.292;6.000;2022-07-23T16:01:19;1.85;;;1.05;;